Aérodrome :
LOGIN :

S'inscrire | Disclaimer

   EN    FR    IT 

 










Légende :    VFR   VFR Marginal   IFR   IFR Intensif   IFR Très Intensif
Visi : 
Plafond : 
>= 8 km
>= 3000ft
5 à 8 km
1000 à 3000 ft
1500m à 5 km
500 à 1000 ft
800 à 1500m
200 à 500 ft
< 800m
< 200 ft
Symboles :   Orages  Brouillard  Fortes neiges  Fortes précipitations  Vent > 20 kt
SIGMETs :   Divers  Orages  Givrage  Turbulence  Onde Orograph.  Cendres Volcan.







- Altitude de l'aérodrome : 412 ft
- Code IATA : ORE
- Voir les cartes d'approche


LFOJ - Orleans

DERNIER METAR :
  • 222000Z AUTO 28003KT CAVOK 17/11 Q1013

METARs EXPIRÉS :
  • 221930Z AUTO 29008KT CAVOK 18/11 Q1013
  • 221900Z AUTO 27012KT CAVOK 20/09 Q1012
  • 221830Z AUTO 23012KT 9999 FEW049 BKN060 BKN074 21/12 Q1011 NOSIG
  • 221800Z AUTO 23014KT CAVOK 21/12 Q1011 TEMPO 22015G25KT 4000 -SHRA SCT012 BKN030TCU
  • 221730Z AUTO 23013KT 9999 SCT038 BKN064 BKN088 21/13 Q1011 TEMPO 22015G25KT 4000 -SHRA SCT012 BKN030TCU

TAF AMD TAF LFOJ
Valide du 22 à 17h jusqu'au 23 à 15h UTC


221715Z 2217/2315 21008KT 9999 SCT035 SCT080
PROB30
TEMPO 2217/2219 22015G25KT 4000 -SHRA SCT012 BKN030TCU
PROB30
TEMPO 2302/2307 BKN014
BECMG 2314/2315 4500 -RA BKN030
Pas de NOTAMs connus pour ce terrain.
3 SIGMETs publiés pour la FIR Paris (LFFF) :
 
Orages noyés dans la masse
LFFF SIGMET 5 VALID 221900/222100 LFPW
LFFF PARIS FIR/UIR EMBD TS OBS AT 1900Z WI N5045 E00300 - N5030 E00400 - N4815 E00245 - N4830 E00145 TOP FL330 MOV NE 25KT NC=
Orages noyés dans la masse
LFFF SIGMET 4 VALID 221730/222000 LFPW
LFFF PARIS FIR/UIR EMBD TS OBS AT 1730Z WI N4800 E00330 - N4915 E00345 - N4915 E00430 - N4800 E00430 TOP FL380 MOV NE 35KT NC=
Orages noyés dans la masse
LFFF SIGMET 3 VALID 221715/222000 LFPW
LFFF PARIS FIR/UIR EMBD TS OBS AT 1715Z WI N4815 E00530 - N4730 E00415 - N4630 E00445 - N4630 E00430 - N4715 E00345 - N4830 E00500 TOP FL400 MOV NE 20KT NC=



MET'MAP, la Météo Aéronautique d'un coup d'oeil ! - Copyright ORBIFLY Décembre 2007 - Disclaimer

ORBIFLY MET'MAP TEAM :

Programmation & Développement : Alexandra Zaïnal
Conception & Développement : Baudouin d'Aumeries
Co-Programmation & Développement : Marc-Olivier Méhu
Soutien technique & logistique : Manuel Goepfert

Contact : metmap@orbifly.com




SOURCES & CREDITS :

   NOAA